createdAt,value
2023-10-17T00:01:59.626Z,4.03
2023-10-17T00:04:00.918Z,4.03
2023-10-17T00:08:03.803Z,4.03
2023-10-17T00:14:08.095Z,4.03
2023-10-17T00:20:12.098Z,4.03
2023-10-17T00:24:15.585Z,4.02
2023-10-17T00:30:19.919Z,4.02
2023-10-17T00:34:23.160Z,4.02
2023-10-17T00:36:25.087Z,4.02
2023-10-17T00:40:27.053Z,4.02
2023-10-17T00:46:37.370Z,4.02
2023-10-17T00:50:34.490Z,4.02
2023-10-17T00:56:39.501Z,4.02
2023-10-17T01:00:51.639Z,4.02
2023-10-17T01:02:45.278Z,4.01
2023-10-17T01:04:45.754Z,4.02
2023-10-17T01:06:47.201Z,4.01
2023-10-17T01:12:53.168Z,4.01
2023-10-17T01:15:02.633Z,4.01
2023-10-17T01:16:54.648Z,4.01
2023-10-17T01:18:55.861Z,4.01
2023-10-17T01:22:59.082Z,4.01
2023-10-17T01:29:12.436Z,4.01
2023-10-17T01:33:07.003Z,4
2023-10-17T01:35:08.932Z,4.01
2023-10-17T01:39:28.712Z,4.01
2023-10-17T01:43:14.617Z,4
2023-10-17T01:45:15.787Z,4
2023-10-17T01:49:19.012Z,4
2023-10-17T01:55:24.864Z,4
2023-10-17T02:01:28.846Z,4
2023-10-17T02:05:33.042Z,4
2023-10-17T02:11:37.384Z,4
2023-10-17T02:15:40.173Z,4
2023-10-17T02:17:42.161Z,4
2023-10-17T02:21:44.685Z,4
2023-10-17T02:25:47.994Z,3.99
2023-10-17T02:27:49.911Z,3.99
2023-10-17T02:29:51.864Z,3.99
2023-10-17T02:31:53.553Z,3.99
2023-10-17T02:37:57.935Z,3.99
2023-10-17T02:40:00.168Z,3.99
2023-10-17T02:44:01.956Z,3.99
2023-10-17T02:48:04.749Z,3.98
2023-10-17T02:54:10.328Z,3.98
2023-10-17T02:58:12.731Z,3.98
2023-10-17T03:00:14.623Z,3.98
2023-10-17T03:04:17.491Z,3.98
2023-10-17T03:08:28.070Z,3.98
2023-10-17T03:10:21.263Z,3.98
2023-10-17T03:14:24.043Z,3.98
2023-10-17T03:20:28.100Z,3.98
2023-10-17T03:26:32.212Z,3.98
2023-10-17T03:30:35.123Z,3.98
2023-10-17T03:36:39.889Z,3.98
2023-10-17T03:40:42.725Z,3.97
2023-10-17T03:42:43.862Z,3.97
2023-10-17T03:46:46.484Z,3.97
2023-10-17T03:50:49.653Z,3.97
2023-10-17T03:52:50.883Z,3.97
2023-10-17T03:56:54.675Z,3.97
2023-10-17T04:00:58.161Z,3.97
2023-10-17T04:03:00.219Z,3.97
2023-10-17T04:09:05.410Z,3.97
2023-10-17T04:13:08.241Z,3.96
2023-10-17T04:19:12.794Z,3.96
2023-10-17T04:21:13.746Z,3.96
2023-10-17T04:23:15.083Z,3.96
2023-10-17T04:25:16.783Z,3.96
2023-10-17T04:29:20.188Z,3.96
2023-10-17T04:33:23.416Z,3.96
2023-10-17T04:35:24.643Z,3.96
2023-10-17T04:39:27.434Z,3.96
2023-10-17T04:45:32.039Z,3.96
2023-10-17T04:51:37.136Z,3.96
2023-10-17T04:55:40.265Z,3.96
2023-10-17T05:01:45.496Z,3.95
2023-10-17T05:05:48.559Z,3.95
2023-10-17T05:07:50.290Z,3.96
2023-10-17T05:11:52.628Z,3.95
2023-10-17T05:15:55.740Z,3.95
2023-10-17T05:17:57.583Z,3.95
2023-10-17T05:22:00.179Z,3.95
2023-10-17T05:26:03.294Z,3.95
2023-10-17T05:28:05.081Z,3.95
2023-10-17T05:32:07.550Z,3.95
2023-10-17T05:34:09.238Z,3.94
2023-10-17T05:38:12.857Z,3.94
2023-10-17T05:44:16.546Z,3.94
2023-10-17T05:50:20.763Z,3.94
2023-10-17T05:54:40.950Z,3.94
2023-10-17T05:58:27.165Z,3.94
2023-10-17T06:00:29.188Z,3.94
2023-10-17T06:03:15.126Z,3.94
2023-10-17T06:05:17.105Z,3.94
2023-10-17T06:09:20.513Z,3.94
2023-10-17T06:11:21.663Z,3.94
2023-10-17T06:13:23.259Z,3.94
2023-10-17T06:15:24.557Z,3.94
2023-10-17T06:21:29.175Z,3.94
2023-10-17T06:23:30.466Z,3.94
2023-10-17T06:27:34.054Z,3.93
2023-10-17T06:31:36.977Z,3.93
2023-10-17T06:37:41.665Z,3.93
2023-10-17T06:41:44.770Z,3.93
2023-10-17T06:43:46.791Z,3.93
2023-10-17T06:47:50.218Z,3.93
2023-10-17T06:51:54.062Z,3.93
2023-10-17T06:53:55.164Z,3.93
2023-10-17T06:55:57.151Z,3.93
2023-10-17T06:57:58.725Z,3.93
2023-10-17T07:04:03.166Z,3.93
2023-10-17T07:06:04.486Z,3.93
2023-10-17T07:10:07.959Z,3.93
2023-10-17T07:14:10.454Z,3.94
2023-10-17T07:20:14.150Z,3.94
2023-10-17T07:24:17.100Z,3.95
2023-10-17T07:26:18.812Z,3.95
2023-10-17T07:30:21.398Z,3.96
2023-10-17T07:34:24.266Z,3.96
2023-10-17T07:36:25.798Z,3.96
2023-10-17T07:40:29.099Z,3.97
2023-10-17T07:46:34.015Z,3.97
2023-10-17T07:52:38.914Z,3.98
2023-10-17T07:56:42.034Z,3.98
2023-10-17T08:02:46.559Z,3.98
2023-10-17T08:06:50.262Z,3.99
2023-10-17T08:08:52.062Z,4
2023-10-17T08:12:54.958Z,4
2023-10-17T08:16:58.609Z,4.02
2023-10-17T08:18:59.778Z,4.02
2023-10-17T08:23:03.160Z,4.02
2023-10-17T08:29:06.576Z,4.03
2023-10-17T08:35:11.026Z,4.03
2023-10-17T08:39:14.647Z,4.04
2023-10-17T08:45:19.674Z,4.06
2023-10-17T08:49:23.093Z,4.07
2023-10-17T08:51:29.151Z,4.07
2023-10-17T08:55:26.489Z,4.08
2023-10-17T08:59:29.388Z,4.08
2023-10-17T09:01:30.884Z,4.08
2023-10-17T09:05:33.647Z,4.1
2023-10-17T09:11:37.522Z,4.1
2023-10-17T09:17:41.207Z,4.11
2023-10-17T09:21:43.341Z,4.12
2023-10-17T09:27:48.160Z,4.13
2023-10-17T09:33:51.895Z,4.13
2023-10-17T09:37:54.576Z,4.14
2023-10-17T09:41:58.052Z,4.15
2023-10-17T09:43:59.626Z,4.15
2023-10-17T09:48:03.049Z,4.15
2023-10-17T09:52:05.428Z,4.16
2023-10-17T09:54:07.104Z,4.16
2023-10-17T09:58:09.164Z,4.16
2023-10-17T10:00:10.190Z,4.16
2023-10-17T10:04:12.825Z,4.17
2023-10-17T10:10:17.349Z,4.17
2023-10-17T10:16:22.068Z,4.18
2023-10-17T10:20:25.246Z,4.18
2023-10-17T10:26:28.325Z,4.18
2023-10-17T10:30:30.252Z,4.19
2023-10-17T10:32:31.213Z,4.19
2023-10-17T10:36:33.620Z,4.19
2023-10-17T10:40:36.599Z,4.19
2023-10-17T10:42:37.827Z,4.19
2023-10-17T10:46:40.403Z,4.19
2023-10-17T10:52:43.923Z,4.19
2023-10-17T10:58:48.045Z,4.19
2023-10-17T11:02:51.812Z,4.19
2023-10-17T11:08:55.159Z,4.2
2023-10-17T11:12:57.903Z,4.2
2023-10-17T11:15:05.411Z,4.2
2023-10-17T11:19:01.973Z,4.2
2023-10-17T11:23:05.392Z,4.2
2023-10-17T11:25:07.265Z,4.2
2023-10-17T11:29:10.099Z,4.2
2023-10-17T11:33:12.621Z,4.2
2023-10-17T11:35:13.531Z,4.2
2023-10-17T11:39:15.659Z,4.2
2023-10-17T11:41:17.481Z,4.2
2023-10-17T11:43:19.210Z,4.2
2023-10-17T11:51:23.873Z,4.2
2023-10-17T11:53:25.240Z,4.2
2023-10-17T11:57:28.561Z,4.18
2023-10-17T12:01:30.471Z,4.18
2023-10-17T12:07:35.528Z,4.17
2023-10-17T12:11:38.503Z,4.17
2023-10-17T12:13:40.152Z,4.17
2023-10-17T12:17:43.473Z,4.17
2023-10-17T12:23:47.980Z,4.17
2023-10-17T12:27:50.960Z,4.17
2023-10-17T12:29:52.272Z,4.17
2023-10-17T12:33:54.737Z,4.17
2023-10-17T12:39:58.511Z,4.16
2023-10-17T12:44:01.705Z,4.16
2023-10-17T12:46:46.839Z,4.16
2023-10-17T12:50:48.698Z,4.16
2023-10-17T12:54:51.984Z,4.16
2023-10-17T13:00:56.431Z,4.16
2023-10-17T13:07:00.763Z,4.15
2023-10-17T13:11:04.550Z,4.16
2023-10-17T13:17:07.518Z,4.16
2023-10-17T13:21:11.298Z,4.16
2023-10-17T13:23:12.181Z,4.15
2023-10-17T13:27:19.910Z,4.15
2023-10-17T13:31:18.299Z,4.15
2023-10-17T13:33:19.854Z,4.15
2023-10-17T13:37:23.751Z,4.15
2023-10-17T13:43:28.179Z,4.14
2023-10-17T13:49:33.051Z,4.14
2023-10-17T13:53:36.682Z,4.14
2023-10-17T13:59:40.737Z,4.14
2023-10-17T14:03:44.312Z,4.14
2023-10-17T14:05:45.543Z,4.14
2023-10-17T14:09:49.419Z,4.14
2023-10-17T14:13:50.904Z,4.14
2023-10-17T14:15:52.700Z,4.14
2023-10-17T14:19:55.072Z,4.14
2023-10-17T14:25:58.611Z,4.14
2023-10-17T14:32:02.134Z,4.13
2023-10-17T14:36:04.816Z,4.14
2023-10-17T14:42:08.450Z,4.13
2023-10-17T14:48:12.796Z,4.13
2023-10-17T14:52:14.862Z,4.13
2023-10-17T14:56:18.628Z,4.12
2023-10-17T14:58:20.080Z,4.12
2023-10-17T15:02:22.219Z,4.17
2023-10-17T15:06:25.946Z,4.17
2023-10-17T15:08:27.575Z,4.17
2023-10-17T15:12:30.529Z,4.18
2023-10-17T15:14:31.653Z,4.18
2023-10-17T15:16:33.396Z,4.18
2023-10-17T15:18:35.047Z,4.18
2023-10-17T15:24:39.365Z,4.19
2023-10-17T15:30:43.983Z,4.19
2023-10-17T15:34:46.536Z,4.19
2023-10-17T15:40:51.161Z,4.19
2023-10-17T15:44:53.793Z,4.2
2023-10-17T15:46:55.113Z,4.18
2023-10-17T15:50:57.834Z,4.17
2023-10-17T15:55:00.978Z,4.17
2023-10-17T15:57:02.669Z,4.17
2023-10-17T16:01:05.641Z,4.17
2023-10-17T16:07:10.513Z,4.16
2023-10-17T16:13:15.313Z,4.16
2023-10-17T16:17:18.477Z,4.16
2023-10-17T16:23:23.309Z,4.16
2023-10-17T16:27:26.889Z,4.16
2023-10-17T16:29:28.826Z,4.16
2023-10-17T16:33:31.334Z,4.15
2023-10-17T16:37:33.417Z,4.15
2023-10-17T16:39:35.135Z,4.16
2023-10-17T16:43:38.187Z,4.15
2023-10-17T16:49:42.513Z,4.15
2023-10-17T16:55:46.741Z,4.15
2023-10-17T16:59:54.489Z,4.14
2023-10-17T17:05:54.367Z,4.14
2023-10-17T17:09:57.280Z,4.14
2023-10-17T17:11:58.304Z,4.14
2023-10-17T17:16:01.021Z,4.14
2023-10-17T17:20:04.143Z,4.14
2023-10-17T17:22:05.245Z,4.14
2023-10-17T17:26:07.318Z,4.14
2023-10-17T17:32:11.238Z,4.14
2023-10-17T17:38:16.057Z,4.13
2023-10-17T17:42:19.027Z,4.13
2023-10-17T17:48:23.068Z,4.13
2023-10-17T17:54:27.911Z,4.13
2023-10-17T17:58:30.431Z,4.13
2023-10-17T18:04:34.872Z,4.12
2023-10-17T18:08:38.635Z,4.12
2023-10-17T18:12:41.752Z,4.12
2023-10-17T18:14:43.170Z,4.12
2023-10-17T18:18:45.957Z,4.12
2023-10-17T18:20:47.628Z,4.12
2023-10-17T18:22:48.865Z,4.12
2023-10-17T18:24:49.921Z,4.12
2023-10-17T18:30:54.360Z,4.12
2023-10-17T18:36:59.097Z,4.11
2023-10-17T18:41:02.138Z,4.11
2023-10-17T18:47:05.498Z,4.11
2023-10-17T18:51:08.738Z,4.11
2023-10-17T18:53:10.489Z,4.11
2023-10-17T18:57:12.925Z,4.11
2023-10-17T19:01:15.903Z,4.11
2023-10-17T19:03:16.604Z,4.11
2023-10-17T19:07:19.387Z,4.1
2023-10-17T19:13:23.918Z,4.1
2023-10-17T19:19:28.597Z,4.1
2023-10-17T19:23:31.658Z,4.1
2023-10-17T19:29:37.291Z,4.1
2023-10-17T19:32:23.162Z,4.1
2023-10-17T19:34:24.966Z,4.1
2023-10-17T19:38:28.493Z,4.1
2023-10-17T19:40:30.253Z,4.1
2023-10-17T19:44:33.219Z,4.09
2023-10-17T19:50:38.318Z,4.09
2023-10-17T19:56:43.234Z,4.09
2023-10-17T20:00:47.002Z,4.09
2023-10-17T20:06:51.503Z,4.09
2023-10-17T20:10:53.813Z,4.08
2023-10-17T20:12:55.803Z,4.08
2023-10-17T20:16:58.589Z,4.08
2023-10-17T20:21:01.664Z,4.08
2023-10-17T20:23:03.128Z,4.08
2023-10-17T20:27:05.676Z,4.08
2023-10-17T20:33:09.774Z,4.08
2023-10-17T20:39:14.237Z,4.08
2023-10-17T20:43:17.208Z,4.08
2023-10-17T20:49:22.519Z,4.07
2023-10-17T20:53:25.058Z,4.07
2023-10-17T20:55:26.392Z,4.08
2023-10-17T20:59:29.824Z,4.07
2023-10-17T21:03:32.780Z,4.07
2023-10-17T21:05:34.199Z,4.07
2023-10-17T21:09:37.508Z,4.07
2023-10-17T21:15:43.100Z,4.07
2023-10-17T21:19:45.628Z,4.07
2023-10-17T21:21:46.928Z,4.07
2023-10-17T21:25:49.827Z,4.06
2023-10-17T21:31:54.160Z,4.06
2023-10-17T21:37:59.333Z,4.06
2023-10-17T21:42:01.879Z,4.06
2023-10-17T21:46:04.911Z,4.06
2023-10-17T21:48:06.102Z,4.06
2023-10-17T21:52:09.475Z,4.06
2023-10-17T21:56:12.906Z,4.06
2023-10-17T21:58:14.010Z,4.06
2023-10-17T22:02:17.039Z,4.06
2023-10-17T22:04:18.948Z,4.06
2023-10-17T22:06:20.220Z,4.06
2023-10-17T22:08:21.993Z,4.05
2023-10-17T22:14:25.531Z,4.05
2023-10-17T22:16:27.076Z,4.05
2023-10-17T22:20:30.553Z,4.05
2023-10-17T22:24:44.704Z,4.05
2023-10-17T22:30:36.383Z,4.05
2023-10-17T22:34:39.342Z,4.05
2023-10-17T22:36:41.088Z,4.04
2023-10-17T22:40:43.877Z,4.05
2023-10-17T22:44:47.190Z,4.04
2023-10-17T22:46:48.467Z,4.04
2023-10-17T22:50:51.438Z,4.04
2023-10-17T22:56:55.653Z,4.04
2023-10-17T23:03:00.627Z,4.04
2023-10-17T23:07:03.861Z,4.04
2023-10-17T23:13:09.258Z,4.04
2023-10-17T23:17:12.044Z,4.04
2023-10-17T23:19:14.031Z,4.04
2023-10-17T23:23:16.696Z,4.03
2023-10-17T23:27:20.048Z,4.03
2023-10-17T23:29:21.876Z,4.03
2023-10-17T23:33:25.269Z,4.03
2023-10-17T23:39:29.609Z,4.03
2023-10-17T23:45:34.035Z,4.03
2023-10-17T23:49:36.739Z,4.03
2023-10-17T23:55:41.727Z,4.02
2023-10-17T23:59:44.569Z,4.02
